Estación Meteorológica Peña el Pijo (Robertgarden) [ 03/23/19 13:53:30 CET ]

Fecha Hora Presion(HPa) Temp (°C) Humedad % Rocio (°C) Viento ( m/s) Direccion Lluvia 1Hora(mm) Lluvia 24H(mm) LLuvia Total(mm)
2019-Mar-13 01:01:50 1013.700 12.9 64 6.2         184.40
2019-Mar-13 02:01:39 1013.600 12.4 67 6.4         184.40
2019-Mar-13 03:05:35 1013.000 10.8 66 4.7         184.40
2019-Mar-13 04:01:57 1012.100 10.6 69 5.2         184.40
2019-Mar-13 05:01:52 1011.700 9.6 70 4.4         184.40
2019-Mar-13 06:01:47 1011.500 8.8 71 3.8         184.40
2019-Mar-13 07:01:35 1011.800 6.7 73 2.2         184.40
2019-Mar-13 08:01:46 1012.000 5.4 76 1.5         184.40
2019-Mar-13 09:01:54 1012.600 9.8 75 5.5         184.40
2019-Mar-13 10:01:46 1013.600 11.9 60 4.4         184.40
2019-Mar-13 11:01:51 1013.500 12.9 57 4.5         184.40
2019-Mar-13 12:01:47 1014.100 13.5 50 3.3         184.40
2019-Mar-13 13:01:48 1014.200 14.9 46 3.3         184.40
2019-Mar-13 14:01:51 1013.600 16.2 42 3.2         184.40
2019-Mar-13 15:01:41 1013.200 17.5 38 2.9         184.40
2019-Mar-13 16:01:57 1013.300 16.4 37 1.6         184.40
2019-Mar-13 17:01:50 1013.700 16.4 35 0.8         184.40
2019-Mar-13 18:01:59 1014.000 14.7 38 0.4         184.40
2019-Mar-13 19:01:48 1014.600 11.9 43 -0.4         184.40
2019-Mar-13 20:01:48 1015.500 10.2 46 -1.0         184.40
2019-Mar-13 21:01:37 1016.200 9.1 41 -3.5         184.40
2019-Mar-13 22:01:46 1016.500 6.9 44 -4.6         184.40
2019-Mar-13 23:01:54 1016.900 4.8 51 -4.5         184.40

Temperatura Máxima:17°    Temperatura Mínima:
Presión Máxima:1016.900 Hpa    Presión Mínima:1011.500 Hpa


Volver